createdAt,value
2023-04-09T00:01:11.918Z,65.81
2023-04-09T00:06:11.643Z,65.84
2023-04-09T00:11:08.507Z,65.28
2023-04-09T00:16:05.956Z,64.90
2023-04-09T00:21:02.933Z,64.84
2023-04-09T00:26:01.246Z,64.51
2023-04-09T00:30:58.343Z,64.08
2023-04-09T00:35:55.651Z,63.03
2023-04-09T00:40:52.629Z,62.59
2023-04-09T00:45:50.922Z,62.90
2023-04-09T00:50:47.841Z,62.41
2023-04-09T00:55:45.251Z,62.68
2023-04-09T01:00:42.205Z,63.11
2023-04-09T01:05:48.102Z,63.75
2023-04-09T01:10:57.735Z,64.94
2023-04-09T01:15:57.351Z,66.16
2023-04-09T01:20:59.396Z,66.19
2023-04-09T01:26:04.934Z,65.88
2023-04-09T01:31:15.520Z,65.62
2023-04-09T01:36:15.499Z,65.98
2023-04-09T01:41:17.094Z,66.39
2023-04-09T01:46:16.578Z,67.44
2023-04-09T01:51:13.991Z,67.18
2023-04-09T01:56:11.333Z,67.32
2023-04-09T02:01:14.425Z,67.54
2023-04-09T02:06:15.716Z,67.90
2023-04-09T02:11:14.633Z,67.60
2023-04-09T02:16:13.955Z,67.57
2023-04-09T02:21:13.145Z,67.90
2023-04-09T02:26:10.733Z,69.27
2023-04-09T02:31:11.055Z,70.78
2023-04-09T02:36:11.635Z,71.91
2023-04-09T02:41:08.589Z,72.73
2023-04-09T02:46:07.108Z,72.32
2023-04-09T02:51:05.769Z,71.18
2023-04-09T02:56:02.969Z,70.90
2023-04-09T03:00:59.951Z,70.81
2023-04-09T03:05:57.705Z,70.18
2023-04-09T03:10:54.709Z,69.78
2023-04-09T03:15:52.843Z,68.95
2023-04-09T03:20:49.795Z,68.53
2023-04-09T03:25:47.528Z,68.50
2023-04-09T03:30:47.085Z,68.26
2023-04-09T03:35:45.100Z,67.44
2023-04-09T03:40:43.344Z,68.79
2023-04-09T03:45:41.160Z,70.14
2023-04-09T03:50:53.604Z,70.62
2023-04-09T03:55:58.957Z,70.14
2023-04-09T04:00:57.914Z,69.47
2023-04-09T04:06:21.022Z,68.83
2023-04-09T04:11:30.264Z,68.94
2023-04-09T04:16:29.576Z,68.29
2023-04-09T04:21:27.277Z,67.48
2023-04-09T04:26:31.105Z,67.12
2023-04-09T04:31:29.023Z,66.86
2023-04-09T04:36:28.622Z,67.01
2023-04-09T04:41:25.674Z,66.08
2023-04-09T04:46:34.032Z,66.03
2023-04-09T04:51:31.331Z,65.69
2023-04-09T04:56:36.582Z,65.77
2023-04-09T05:01:42.823Z,65.41
2023-04-09T05:06:42.434Z,64.81
2023-04-09T05:11:43.769Z,64.56
2023-04-09T05:16:47.351Z,63.67
2023-04-09T05:22:04.166Z,61.06
2023-04-09T05:27:01.372Z,58.21
2023-04-09T05:32:00.766Z,53.82
2023-04-09T05:37:02.952Z,48.98
2023-04-09T05:42:00.525Z,45.87
2023-04-09T05:47:10.570Z,43.86
2023-04-09T05:57:33.926Z,38.08
2023-04-09T06:02:35.911Z,35.35
2023-04-09T06:07:33.181Z,32.81
2023-04-09T06:12:30.218Z,33.18
2023-04-09T06:17:52.069Z,33.04
2023-04-09T06:22:50.676Z,31.64
2023-04-09T06:27:52.175Z,31.69
2023-04-09T06:32:54.937Z,33.02
2023-04-09T06:37:56.099Z,33.01
2023-04-09T06:42:59.186Z,33.45
2023-04-09T06:48:37.757Z,33.26
2023-04-09T06:53:35.241Z,33.24
2023-04-09T06:58:35.071Z,33.40
2023-04-09T07:03:33.248Z,33.46
2023-04-09T07:08:30.587Z,33.13
2023-04-09T07:18:25.575Z,33.88
2023-04-09T07:23:23.314Z,33.61
2023-04-09T07:28:20.628Z,33.05
2023-04-09T07:33:17.819Z,32.28
2023-04-09T07:38:15.744Z,32.70
2023-04-09T07:43:13.386Z,30.91
2023-04-09T07:48:10.229Z,30.31
2023-04-09T07:53:07.131Z,30.13
2023-04-09T07:58:07.225Z,29.19
2023-04-09T08:03:11.062Z,29.13
2023-04-09T08:08:09.743Z,28.04
2023-04-09T08:13:11.507Z,26.47
2023-04-09T08:18:11.329Z,26.78
2023-04-09T08:23:26.464Z,27.03
2023-04-09T08:28:32.083Z,28.45
2023-04-09T08:33:37.636Z,28.26
2023-04-09T08:38:34.618Z,27.47
2023-04-09T08:43:52.511Z,26.88
2023-04-09T08:48:52.650Z,26.72
2023-04-09T08:54:00.768Z,27.32
2023-04-09T08:59:00.535Z,26.82
2023-04-09T09:04:01.193Z,27.17
2023-04-09T09:09:07.376Z,26.78
2023-04-09T09:14:06.167Z,27.17
2023-04-09T09:19:07.030Z,26.83
2023-04-09T09:24:17.098Z,26.33
2023-04-09T09:29:16.753Z,26.46
2023-04-09T09:34:19.971Z,25.65
2023-04-09T09:39:21.690Z,26.12
2023-04-09T09:44:34.169Z,24.60
2023-04-09T09:49:32.839Z,24.94
2023-04-09T09:54:41.656Z,24.58
2023-04-09T09:59:43.420Z,24.17
2023-04-09T10:04:42.588Z,23.33
2023-04-09T10:09:48.758Z,23.11
2023-04-09T10:14:46.252Z,25.21
2023-04-09T10:19:52.855Z,25.26
2023-04-09T10:24:50.706Z,25.16
2023-04-09T10:29:48.790Z,25.04
2023-04-09T10:34:48.684Z,24.94
2023-04-09T10:39:47.378Z,26.03
2023-04-09T10:44:45.008Z,26.89
2023-04-09T10:49:42.769Z,26.79
2023-04-09T10:54:44.825Z,26.95
2023-04-09T10:59:45.042Z,27.52
2023-04-09T11:05:03.393Z,28.01
2023-04-09T11:10:01.491Z,28.37
2023-04-09T11:14:58.614Z,27.73
2023-04-09T11:19:55.926Z,27.51
2023-04-09T11:24:54.561Z,27.15
2023-04-09T11:30:00.216Z,27.14
2023-04-09T11:34:59.370Z,27.37
2023-04-09T11:39:57.979Z,28.45
2023-04-09T11:44:57.666Z,29.11
2023-04-09T11:49:54.810Z,29.32
2023-04-09T11:54:51.783Z,28.64
2023-04-09T11:59:48.769Z,29.71
2023-04-09T12:04:50.612Z,29.94
2023-04-09T12:09:48.638Z,29.67
2023-04-09T12:14:46.326Z,29.10
2023-04-09T12:19:43.237Z,28.86
2023-04-09T12:24:41.022Z,29.35
2023-04-09T12:29:37.989Z,29.74
2023-04-09T12:34:35.560Z,29.20
2023-04-09T12:39:34.280Z,30.08
2023-04-09T12:44:33.251Z,29.65
2023-04-09T12:49:30.647Z,28.94
2023-04-09T12:54:27.621Z,28.82
2023-04-09T12:59:24.688Z,28.71
2023-04-09T13:04:22.353Z,29.87
2023-04-09T13:09:19.440Z,30.00
2023-04-09T13:14:19.337Z,29.87
2023-04-09T13:19:16.415Z,30.14
2023-04-09T13:24:14.836Z,30.09
2023-04-09T13:29:11.915Z,30.13
2023-04-09T13:34:09.972Z,30.32
2023-04-09T13:39:08.532Z,30.44
2023-04-09T13:44:12.120Z,29.89
2023-04-09T14:35:36.859Z,30.64
2023-04-09T14:40:33.818Z,30.42
2023-04-09T14:45:31.006Z,30.40
2023-04-09T14:50:31.900Z,30.78
2023-04-09T14:55:29.891Z,30.69
2023-04-09T15:00:26.702Z,30.71
2023-04-09T15:05:27.645Z,31.08
2023-04-09T15:10:27.521Z,31.40
2023-04-09T15:15:25.374Z,32.04
2023-04-09T15:25:06.279Z,32.31
2023-04-09T15:30:04.080Z,32.57
2023-04-09T15:35:06.852Z,32.60
2023-04-09T15:40:08.686Z,32.52
2023-04-09T15:45:07.018Z,32.20
2023-04-09T15:50:04.753Z,32.32
2023-04-09T15:55:06.067Z,32.81
2023-04-09T16:00:11.747Z,33.65
2023-04-09T16:10:32.593Z,34.00
2023-04-09T16:15:37.367Z,34.73
2023-04-09T16:20:58.910Z,35.41
2023-04-09T16:26:19.480Z,35.83
2023-04-09T16:31:23.052Z,36.60
2023-04-09T16:36:56.328Z,37.24
2023-04-09T16:48:24.887Z,38.10
2023-04-09T16:53:26.151Z,38.63
2023-04-09T16:58:32.518Z,39.31
2023-04-09T17:03:58.102Z,39.89
2023-04-09T17:15:19.515Z,40.99
2023-04-09T17:20:41.758Z,41.58
2023-04-09T17:26:05.033Z,42.15
2023-04-09T17:31:46.099Z,42.49
2023-04-09T17:43:12.878Z,43.24
2023-04-09T18:01:08.110Z,44.95
2023-04-09T18:12:06.585Z,44.52
2023-04-09T18:17:28.619Z,44.09
2023-04-09T18:36:17.779Z,44.54
2023-04-09T18:48:38.459Z,45.78
2023-04-09T18:59:57.995Z,46.22
2023-04-09T19:05:32.037Z,46.32
2023-04-09T19:11:06.520Z,46.73
2023-04-09T19:23:53.261Z,47.23
2023-04-09T19:30:19.086Z,47.23
2023-04-09T19:35:41.575Z,47.24
2023-04-09T19:41:42.087Z,46.79
2023-04-09T19:46:49.326Z,46.66
2023-04-09T19:52:20.632Z,46.64
2023-04-09T19:57:53.162Z,46.45
2023-04-09T20:03:21.524Z,46.19
2023-04-09T20:08:31.390Z,45.95
2023-04-09T20:13:35.415Z,45.75
2023-04-09T20:25:29.870Z,45.23
2023-04-09T20:30:48.993Z,45.75
2023-04-09T20:42:16.365Z,46.32
2023-04-09T20:47:22.878Z,45.97
2023-04-09T20:52:34.360Z,45.91
2023-04-09T20:58:13.097Z,46.12
2023-04-09T21:03:23.938Z,45.91
2023-04-09T21:20:16.862Z,46.35
2023-04-09T21:30:57.495Z,49.03
2023-04-09T21:36:24.575Z,49.91
2023-04-09T21:41:34.410Z,51.67
2023-04-09T21:46:40.118Z,52.45
2023-04-09T21:51:51.157Z,53.01
2023-04-09T21:57:28.126Z,53.81
2023-04-09T22:02:34.968Z,53.52
2023-04-09T22:07:39.778Z,53.84
2023-04-09T22:12:54.685Z,54.12
2023-04-09T22:18:01.991Z,55.28
2023-04-09T22:23:02.778Z,56.49
2023-04-09T22:28:04.853Z,57.03
2023-04-09T22:33:09.200Z,57.05
2023-04-09T22:38:15.417Z,56.74
2023-04-09T22:43:12.906Z,57.09
2023-04-09T22:48:16.306Z,56.64
2023-04-09T22:58:40.651Z,55.84
2023-04-09T23:03:52.094Z,55.40
2023-04-09T23:15:01.719Z,54.07
2023-04-09T23:20:19.686Z,53.66
2023-04-09T23:25:44.114Z,53.25
2023-04-09T23:30:48.345Z,52.40
2023-04-09T23:36:03.347Z,52.25
2023-04-09T23:41:23.540Z,52.23
2023-04-09T23:46:27.994Z,52.60
2023-04-09T23:51:35.057Z,52.70
2023-04-09T23:56:44.488Z,53.97
